Time;durP1;ratioP1;P1;durP2;ratioP2;P2;SDS_P1;SDS_P2;PMS_P1;PMS_P2;Temp;Humidity;BMP_temperature;BMP_pressure;BME280_temperature;BME280_humidity;BME280_pressure;Samples;Min_cycle;Max_cycle;Signal;HPM_P1;HPM_P2
2021/07/19 00:01:33;;;;;;;2.65;1.98;;;;;;;20.95;67.55;97048.56;5093672;28;20189;-69
2021/07/19 00:04:00;;;;;;;1.98;1.83;;;;;;;20.88;67.85;97048.13;5102018;28;20226;-68
2021/07/19 00:06:26;;;;;;;1.92;1.83;;;;;;;20.84;67.87;97041.78;5096287;28;20195;-67
2021/07/19 00:08:52;;;;;;;2.42;2.22;;;;;;;20.85;67.93;97049.47;5091915;28;20629;-67
2021/07/19 00:11:17;;;;;;;2.15;1.90;;;;;;;20.87;68.15;97049.97;5105674;28;20192;-73
2021/07/19 00:13:43;;;;;;;2.90;2.20;;;;;;;20.86;67.64;97045.72;5101188;28;20218;-67
2021/07/19 00:16:08;;;;;;;2.15;1.95;;;;;;;21.10;67.09;97048.34;5103146;28;20633;-70
2021/07/19 00:18:34;;;;;;;1.88;1.77;;;;;;;20.88;67.98;97043.59;5102567;28;20196;-67
2021/07/19 00:21:00;;;;;;;3.13;2.40;;;;;;;20.95;67.61;97041.38;5092503;28;20669;-67
2021/07/19 00:23:26;;;;;;;2.30;1.98;;;;;;;20.85;68.10;97049.47;5110585;28;20208;-67
2021/07/19 00:25:53;;;;;;;2.75;2.15;;;;;;;20.63;69.01;97046.53;5101238;28;20188;-67
2021/07/19 00:28:19;;;;;;;2.15;1.95;;;;;;;20.55;69.22;97041.84;5099480;28;20208;-71
2021/07/19 00:30:44;;;;;;;2.15;2.03;;;;;;;20.59;69.33;97048.19;5100961;28;20238;-70
2021/07/19 00:33:10;;;;;;;2.10;2.00;;;;;;;20.67;69.04;97052.91;5096791;28;20279;-69
2021/07/19 00:35:37;;;;;;;2.38;2.17;;;;;;;20.60;69.15;97047.13;5091351;28;20189;-70
2021/07/19 00:38:03;;;;;;;2.50;2.30;;;;;;;20.64;68.70;97048.13;5108042;28;20172;-69
2021/07/19 00:40:31;;;;;;;2.83;2.17;;;;;;;20.39;70.03;97051.88;5091389;28;20228;-69
2021/07/19 00:42:58;;;;;;;2.63;1.77;;;;;;;20.36;70.35;97049.75;5099863;28;20350;-69
2021/07/19 00:45:26;;;;;;;2.28;2.08;;;;;;;20.34;70.48;97044.72;5098670;28;20552;-70
2021/07/19 00:47:53;;;;;;;2.25;1.90;;;;;;;20.32;70.79;97040.75;5107710;28;20183;-69
2021/07/19 00:50:21;;;;;;;2.05;1.80;;;;;;;20.50;69.97;97034.72;5096367;28;20196;-69
2021/07/19 00:52:48;;;;;;;2.35;2.17;;;;;;;20.42;70.38;97027.34;5109485;28;20248;-69
2021/07/19 00:55:16;;;;;;;2.28;2.08;;;;;;;20.45;70.44;97026.00;5101690;28;20175;-69
2021/07/19 00:57:45;;;;;;;3.67;2.30;;;;;;;20.36;70.44;97025.00;5094674;28;20196;-69
2021/07/19 01:00:12;;;;;;;3.63;2.50;;;;;;;20.42;70.49;97024.69;5089813;28;20208;-69
2021/07/19 01:02:41;;;;;;;2.50;2.25;;;;;;;20.29;70.94;97038.63;5098762;28;20263;-68
2021/07/19 01:05:09;;;;;;;2.30;2.10;;;;;;;20.26;71.08;97037.31;5099044;28;20191;-69
2021/07/19 01:07:37;;;;;;;2.40;2.20;;;;;;;20.29;70.98;97041.28;5106736;28;20800;-68
2021/07/19 01:10:07;;;;;;;2.33;2.17;;;;;;;20.18;71.44;97034.47;5107926;28;20237;-68
2021/07/19 01:12:33;;;;;;;2.30;2.10;;;;;;;20.25;71.26;97040.25;5091068;28;20255;-68
2021/07/19 01:14:59;;;;;;;3.85;2.28;;;;;;;20.36;70.98;97028.47;5089790;28;20223;-69
2021/07/19 01:17:24;;;;;;;3.58;2.20;;;;;;;20.34;70.85;97030.59;5098499;28;20184;-68
2021/07/19 01:19:53;;;;;;;2.58;2.38;;;;;;;20.21;71.39;97034.72;5107414;28;20200;-68
2021/07/19 01:22:37;;;;;;;3.42;2.30;;;;;;;20.24;71.35;97031.47;5096490;28;20200;-71
2021/07/19 01:25:31;;;;;;;2.28;2.08;;;;;;;20.20;71.85;97037.66;5099380;28;20208;-68
2021/07/19 01:28:13;;;;;;;2.40;2.20;;;;;;;20.06;72.25;97034.84;5107521;28;20251;-68
2021/07/19 01:30:43;;;;;;;2.50;2.30;;;;;;;20.20;71.87;97027.81;5088130;28;20217;-67
2021/07/19 01:33:11;;;;;;;2.13;2.03;;;;;;;20.04;72.37;97028.22;5098197;28;20188;-68
2021/07/19 01:35:40;;;;;;;2.35;2.15;;;;;;;19.98;72.98;97026.69;5091543;28;20234;-68
2021/07/19 01:38:07;;;;;;;2.92;2.65;;;;;;;20.01;72.46;97024.25;5078731;28;20187;-67
2021/07/19 01:40:34;;;;;;;3.88;2.35;;;;;;;19.82;73.34;97018.84;5102744;28;20239;-68
2021/07/19 01:43:01;;;;;;;4.57;2.70;;;;;;;19.78;73.48;97019.69;5093152;28;20191;-68
2021/07/19 01:45:27;;;;;;;4.18;2.65;;;;;;;19.86;73.25;97022.53;5095241;28;20188;-68
2021/07/19 01:47:54;;;;;;;3.05;2.42;;;;;;;20.00;72.42;97017.38;5109315;28;20187;-68
2021/07/19 01:50:19;;;;;;;3.15;2.50;;;;;;;19.86;72.65;97019.88;5104236;28;20983;-69
2021/07/19 01:52:46;;;;;;;2.30;2.10;;;;;;;19.84;72.79;97019.34;5102660;28;20188;-68
2021/07/19 01:55:11;;;;;;;2.50;2.30;;;;;;;19.90;72.55;97017.44;5101637;28;20263;-68
2021/07/19 01:57:37;;;;;;;4.15;2.30;;;;;;;19.79;73.17;97021.25;5110278;28;20807;-67
2021/07/19 02:00:06;;;;;;;2.35;2.25;;;;;;;19.71;73.50;97014.69;5103252;28;20200;-67
2021/07/19 02:02:34;;;;;;;2.30;2.10;;;;;;;19.58;74.25;97017.19;5104793;28;20188;-68
2021/07/19 02:04:59;;;;;;;2.40;2.20;;;;;;;19.59;74.18;97016.91;5106546;28;20261;-67
2021/07/19 02:07:27;;;;;;;2.20;2.10;;;;;;;19.65;73.97;97015.81;5093811;28;20192;-67
2021/07/19 02:09:53;;;;;;;3.50;2.50;;;;;;;19.59;74.26;97019.56;5109262;28;20275;-67
2021/07/19 02:12:20;;;;;;;2.50;2.30;;;;;;;19.67;73.91;97026.19;5107946;28;20609;-71
2021/07/19 02:14:46;;;;;;;3.55;2.40;;;;;;;19.52;74.60;97027.88;5096683;28;20192;-71
2021/07/19 02:17:13;;;;;;;3.03;2.67;;;;;;;19.45;75.16;97029.25;5094793;28;20181;-67
2021/07/19 02:19:40;;;;;;;3.03;2.70;;;;;;;19.26;76.13;97023.78;5101208;28;20207;-66
2021/07/19 02:22:07;;;;;;;3.20;2.90;;;;;;;19.44;75.71;97024.97;5112420;28;20180;-66
2021/07/19 02:24:33;;;;;;;3.28;2.40;;;;;;;19.36;75.94;97026.34;5112891;28;20180;-66
2021/07/19 02:27:00;;;;;;;2.65;2.45;;;;;;;19.18;76.62;97024.34;5095355;28;20180;-67
2021/07/19 02:29:26;;;;;;;4.20;2.35;;;;;;;19.32;76.15;97021.88;5107471;28;20216;-67
2021/07/19 02:31:52;;;;;;;3.08;2.63;;;;;;;19.35;76.02;97021.31;5093901;28;20684;-68
2021/07/19 02:34:19;;;;;;;2.95;2.75;;;;;;;19.23;76.57;97020.84;5093694;28;20268;-72
2021/07/19 02:36:46;;;;;;;2.72;2.53;;;;;;;19.30;76.36;97024.00;5110580;28;20192;-68
2021/07/19 02:39:12;;;;;;;4.30;2.70;;;;;;;19.19;76.72;97022.47;5091797;28;20235;-67
2021/07/19 02:41:38;;;;;;;3.33;3.03;;;;;;;19.14;76.95;97028.63;5093711;28;20297;-68
2021/07/19 02:44:05;;;;;;;3.10;2.80;;;;;;;19.04;77.55;97021.50;5076095;28;20706;-68
2021/07/19 02:46:33;;;;;;;3.78;2.70;;;;;;;18.88;78.47;97017.34;5100698;28;20184;-67
2021/07/19 02:48:59;;;;;;;3.15;2.85;;;;;;;19.08;77.51;97016.44;5094937;28;20199;-67
2021/07/19 02:51:28;;;;;;;2.40;2.20;;;;;;;19.01;77.78;97016.72;5104243;28;20240;-67
2021/07/19 02:53:55;;;;;;;2.70;2.50;;;;;;;19.06;77.51;97014.03;5103055;28;20672;-67
2021/07/19 02:56:21;;;;;;;3.20;2.90;;;;;;;18.90;78.40;97019.72;5100807;28;20177;-68
2021/07/19 02:58:47;;;;;;;5.75;2.50;;;;;;;18.94;78.15;97026.88;5074907;28;20702;-67
2021/07/19 03:01:16;;;;;;;6.25;2.67;;;;;;;18.81;78.83;97024.03;5101635;28;20690;-68
2021/07/19 03:03:43;;;;;;;5.60;2.90;;;;;;;18.75;79.49;97030.41;5100459;28;20176;-68
2021/07/19 03:06:14;;;;;;;3.20;2.90;;;;;;;18.69;79.58;97027.78;5100571;28;20188;-68
2021/07/19 03:08:42;;;;;;;2.80;2.60;;;;;;;18.72;79.43;97026.47;5108597;28;20209;-66
2021/07/19 03:11:34;;;;;;;2.87;2.67;;;;;;;18.59;80.27;97022.53;5091507;28;20208;-67
2021/07/19 03:14:01;;;;;;;2.85;2.65;;;;;;;18.69;79.82;97025.13;5101031;28;20181;-67
2021/07/19 03:16:28;;;;;;;3.13;2.50;;;;;;;18.70;79.89;97025.94;5094105;28;20180;-69
2021/07/19 03:18:57;;;;;;;2.40;2.30;;;;;;;18.76;79.67;97016.88;5102086;28;20188;-67
2021/07/19 03:21:23;;;;;;;4.63;2.80;;;;;;;18.73;79.69;97012.09;5091982;28;20253;-68
2021/07/19 03:23:51;;;;;;;2.80;2.60;;;;;;;18.86;78.97;97016.03;5102965;28;20188;-67
2021/07/19 03:26:19;;;;;;;4.07;3.07;;;;;;;18.83;79.18;97008.63;5074371;28;20271;-66
2021/07/19 03:28:46;;;;;;;2.70;2.50;;;;;;;18.85;79.13;97007.25;5101372;28;20268;-67
2021/07/19 03:31:12;;;;;;;2.80;2.55;;;;;;;18.75;79.60;97002.00;5101118;28;20890;-65
2021/07/19 03:33:41;;;;;;;3.00;2.67;;;;;;;18.79;79.43;97007.56;5092105;28;20254;-66
2021/07/19 03:36:08;;;;;;;2.80;2.60;;;;;;;18.92;78.57;97010.41;5102896;28;20216;-67
2021/07/19 03:38:36;;;;;;;3.55;2.78;;;;;;;18.70;79.90;97010.00;5112162;28;20240;-66
2021/07/19 03:41:02;;;;;;;2.80;2.60;;;;;;;18.67;80.07;97006.00;5101179;28;20277;-66
2021/07/19 03:43:30;;;;;;;2.77;2.57;;;;;;;18.59;80.33;97009.25;5106371;28;20263;-66
2021/07/19 03:45:56;;;;;;;3.17;2.87;;;;;;;18.73;79.58;97009.44;5095426;28;20185;-65
2021/07/19 03:48:21;;;;;;;2.97;2.77;;;;;;;18.85;79.21;97017.88;5105290;28;20545;-67
2021/07/19 03:50:49;;;;;;;3.38;3.08;;;;;;;18.86;79.03;97021.34;5101374;28;20196;-66
2021/07/19 03:53:15;;;;;;;3.97;2.80;;;;;;;18.82;79.13;97017.66;5099038;28;20239;-66
2021/07/19 03:55:44;;;;;;;4.00;2.67;;;;;;;18.76;79.53;97011.56;5107876;28;20203;-66
2021/07/19 03:58:11;;;;;;;3.30;2.78;;;;;;;18.95;78.93;97015.16;5092957;28;20173;-66
2021/07/19 04:00:37;;;;;;;2.90;2.70;;;;;;;19.05;78.40;97019.66;5107257;28;20262;-66
2021/07/19 04:03:16;;;;;;;2.85;2.65;;;;;;;19.25;77.37;97018.72;5100571;28;20180;-66
2021/07/19 04:05:44;;;;;;;3.13;2.83;;;;;;;19.39;76.64;97014.38;5092012;28;20969;-66
2021/07/19 04:08:11;;;;;;;2.92;2.72;;;;;;;19.40;76.61;97016.75;5093731;28;20583;-66
2021/07/19 04:10:37;;;;;;;3.30;3.00;;;;;;;19.24;77.24;97012.63;5093032;28;20184;-67
2021/07/19 04:13:06;;;;;;;3.03;2.83;;;;;;;19.27;76.79;97013.94;5100554;28;20192;-66
2021/07/19 04:15:33;;;;;;;2.88;2.67;;;;;;;19.32;76.77;97011.25;5098179;28;20331;-66
2021/07/19 04:17:59;;;;;;;2.72;2.53;;;;;;;19.19;77.56;97022.47;5090006;28;20513;-66
2021/07/19 04:20:25;;;;;;;3.28;2.97;;;;;;;19.14;77.95;97020.66;5094960;28;20287;-65
2021/07/19 04:22:51;;;;;;;3.22;2.92;;;;;;;19.09;78.27;97018.81;5097842;28;20221;-65
2021/07/19 04:25:17;;;;;;;2.65;2.45;;;;;;;19.23;77.20;97011.03;5098074;28;20179;-65
2021/07/19 04:27:43;;;;;;;2.88;2.67;;;;;;;19.20;77.77;97022.22;5099734;28;20183;-66
2021/07/19 04:30:10;;;;;;;5.80;3.47;;;;;;;19.03;78.45;97014.59;5109323;28;20183;-65
2021/07/19 04:32:38;;;;;;;3.10;2.80;;;;;;;18.82;79.36;97013.13;5106015;28;20191;-67
2021/07/19 04:35:11;;;;;;;2.92;2.63;;;;;;;19.09;78.29;97021.47;5100700;28;20192;-66
2021/07/19 04:37:37;;;;;;;2.83;2.63;;;;;;;19.11;78.42;97021.22;5102781;28;20183;-66
2021/07/19 04:40:05;;;;;;;2.80;2.60;;;;;;;19.07;78.53;97020.16;5103106;28;20235;-66
2021/07/19 04:42:30;;;;;;;3.80;3.03;;;;;;;19.32;77.55;97020.00;5089147;28;20181;-66
2021/07/19 04:44:57;;;;;;;2.95;2.75;;;;;;;19.70;76.11;97020.28;5107553;28;20198;-66
2021/07/19 04:47:23;;;;;;;2.95;2.75;;;;;;;19.64;75.93;97024.06;5097090;28;20180;-66
2021/07/19 04:49:48;;;;;;;3.17;2.88;;;;;;;19.72;75.98;97021.59;5101928;28;20586;-65
2021/07/19 04:52:14;;;;;;;3.45;2.83;;;;;;;19.69;75.84;97026.66;5104721;28;20192;-66
2021/07/19 04:54:40;;;;;;;3.97;3.33;;;;;;;19.63;76.19;97025.91;5093605;28;20267;-66
2021/07/19 04:57:09;;;;;;;3.72;3.20;;;;;;;19.89;75.07;97023.84;5107717;28;20199;-66
2021/07/19 04:59:48;;;;;;;2.80;2.60;;;;;;;19.86;75.16;97027.84;5098421;28;20194;-66
2021/07/19 05:02:18;;;;;;;3.50;2.60;;;;;;;20.04;74.49;97025.56;5098619;28;20218;-66
2021/07/19 05:04:45;;;;;;;3.85;2.60;;;;;;;20.35;73.34;97024.22;5092038;28;20198;-67
2021/07/19 05:07:14;;;;;;;3.40;2.85;;;;;;;20.27;73.56;97022.94;5102272;28;20195;-66
2021/07/19 05:09:41;;;;;;;2.92;2.50;;;;;;;20.45;72.87;97024.09;5099247;28;21008;-66
2021/07/19 05:12:11;;;;;;;2.78;2.58;;;;;;;20.60;72.80;97023.16;5099256;28;20180;-66
2021/07/19 05:14:39;;;;;;;2.55;2.35;;;;;;;21.00;70.90;97029.84;5095182;28;20187;-67
2021/07/19 05:17:08;;;;;;;2.90;2.63;;;;;;;21.07;70.53;97025.72;5103159;28;20276;-67
2021/07/19 05:19:36;;;;;;;3.50;2.45;;;;;;;21.02;70.30;97023.13;5101370;28;20188;-64
2021/07/19 05:22:02;;;;;;;2.80;2.33;;;;;;;20.82;71.79;97026.06;5092399;28;20184;-66
2021/07/19 05:24:31;;;;;;;2.42;2.22;;;;;;;21.31;69.89;97032.91;5109149;28;20263;-65
2021/07/19 05:26:56;;;;;;;3.85;2.42;;;;;;;21.14;70.35;97028.88;5102161;28;20613;-65
2021/07/19 05:29:22;;;;;;;5.05;2.90;;;;;;;21.07;70.71;97035.59;5107501;28;20199;-70
2021/07/19 05:31:47;;;;;;;3.10;2.80;;;;;;;20.46;73.48;97024.88;5103565;28;20653;-64
2021/07/19 05:34:12;;;;;;;3.28;2.97;;;;;;;20.49;73.81;97030.47;5103270;28;20267;-64
2021/07/19 05:36:38;;;;;;;3.75;3.10;;;;;;;20.63;73.01;97033.22;5108440;28;20277;-65
2021/07/19 05:39:03;;;;;;;4.05;2.60;;;;;;;20.43;73.96;97031.59;5110352;28;20664;-67
2021/07/19 05:41:29;;;;;;;5.10;2.85;;;;;;;20.63;73.32;97026.03;5110320;28;20552;-65
2021/07/19 05:43:54;;;;;;;4.65;2.90;;;;;;;20.17;74.58;97030.25;5096591;28;20201;-65
2021/07/19 05:46:19;;;;;;;2.90;2.65;;;;;;;20.06;74.80;97029.53;5100761;28;20199;-65
2021/07/19 05:48:45;;;;;;;3.50;2.72;;;;;;;20.44;74.04;97027.06;5103180;28;20181;-65
2021/07/19 05:51:11;;;;;;;3.22;2.80;;;;;;;20.89;72.14;97029.19;5094448;28;20190;-66
2021/07/19 05:53:36;;;;;;;3.60;2.78;;;;;;;20.54;73.06;97032.25;5107098;28;20183;-65
2021/07/19 05:56:02;;;;;;;4.43;3.30;;;;;;;20.51;73.64;97028.28;5102133;28;20622;-65
2021/07/19 05:58:27;;;;;;;3.53;2.70;;;;;;;20.53;73.54;97034.13;5109094;28;20543;-65
2021/07/19 06:00:53;;;;;;;3.40;3.10;;;;;;;20.77;72.55;97033.34;5106593;28;20538;-64
2021/07/19 06:03:18;;;;;;;4.25;3.22;;;;;;;20.99;72.14;97033.59;5109513;28;20177;-65
2021/07/19 06:05:46;;;;;;;3.15;2.63;;;;;;;21.30;70.38;97032.09;5108904;28;20187;-65
2021/07/19 06:08:11;;;;;;;3.00;2.80;;;;;;;21.12;70.68;97038.22;5104725;28;20185;-64
2021/07/19 06:10:37;;;;;;;3.13;2.90;;;;;;;21.09;71.21;97036.09;5094212;28;20188;-64
2021/07/19 06:13:03;;;;;;;2.65;2.45;;;;;;;21.50;69.84;97033.69;5104973;28;20186;-63
2021/07/19 06:15:28;;;;;;;3.08;2.78;;;;;;;21.52;69.87;97034.97;5100036;28;20213;-64
2021/07/19 06:17:54;;;;;;;4.45;2.95;;;;;;;21.62;69.59;97035.91;5111229;28;20524;-65
2021/07/19 06:20:28;;;;;;;2.83;2.63;;;;;;;21.99;67.93;97027.84;5101534;28;20192;-64
2021/07/19 06:23:00;;;;;;;3.15;2.85;;;;;;;22.15;67.03;97026.50;5104835;28;20183;-65
2021/07/19 06:25:26;;;;;;;3.10;2.80;;;;;;;21.87;68.06;97025.59;5097286;28;20212;-70
2021/07/19 06:27:51;;;;;;;3.10;2.80;;;;;;;21.72;68.67;97033.88;5094103;28;20220;-63
2021/07/19 06:30:16;;;;;;;6.10;2.95;;;;;;;21.81;68.66;97028.66;5099792;28;20219;-63
2021/07/19 06:32:42;;;;;;;2.72;2.53;;;;;;;22.02;68.89;97031.78;5103760;28;20245;-63
2021/07/19 06:35:08;;;;;;;3.10;2.83;;;;;;;22.40;66.67;97033.25;5105510;28;20184;-64
2021/07/19 06:37:34;;;;;;;4.68;2.65;;;;;;;22.40;66.82;97030.59;5106646;28;20192;-63
2021/07/19 06:39:59;;;;;;;6.22;2.67;;;;;;;22.69;66.17;97027.59;5108529;28;20675;-63
2021/07/19 06:42:25;;;;;;;3.17;2.60;;;;;;;22.71;66.01;97023.56;5098953;28;20268;-71
2021/07/19 06:44:53;;;;;;;4.00;2.88;;;;;;;22.78;65.20;97026.66;5102192;28;20181;-64
2021/07/19 06:47:20;;;;;;;3.83;2.60;;;;;;;23.03;63.65;97021.84;5098306;28;20539;-64
2021/07/19 06:49:45;;;;;;;5.00;3.00;;;;;;;22.86;64.99;97027.00;5103524;28;20188;-64
2021/07/19 06:52:11;;;;;;;2.78;2.55;;;;;;;22.75;64.68;97021.88;5112058;28;20187;-64
2021/07/19 06:54:36;;;;;;;318.75;45.65;;;;;;;23.25;63.69;97015.75;5096241;28;20251;-69
2021/07/19 06:57:01;;;;;;;3.00;2.80;;;;;;;23.34;63.38;97011.28;5104779;28;20195;-64
2021/07/19 06:59:27;;;;;;;2.67;2.47;;;;;;;23.33;61.79;97023.06;5093000;28;20560;-67
2021/07/19 07:01:52;;;;;;;2.78;2.58;;;;;;;23.37;62.11;97018.69;5096344;28;20196;-64
2021/07/19 07:04:18;;;;;;;4.40;3.00;;;;;;;23.44;62.03;97021.72;5096249;28;20547;-64
2021/07/19 07:06:43;;;;;;;3.58;2.95;;;;;;;23.34;62.78;97013.94;5095893;28;20382;-64
2021/07/19 07:09:08;;;;;;;3.17;2.88;;;;;;;22.95;64.22;97017.22;5099562;28;20688;-64
2021/07/19 07:11:34;;;;;;;2.75;2.55;;;;;;;23.40;62.45;97010.84;5094442;28;20196;-64
2021/07/19 07:14:00;;;;;;;3.13;2.92;;;;;;;22.73;64.07;97009.91;5091440;28;20195;-64
2021/07/19 07:16:25;;;;;;;3.10;2.80;;;;;;;22.85;63.81;97002.16;5090825;28;20181;-66
2021/07/19 07:18:51;;;;;;;3.25;2.88;;;;;;;23.26;62.22;97010.09;5092065;28;20200;-65
2021/07/19 07:21:16;;;;;;;3.72;3.40;;;;;;;23.05;63.66;97004.41;5094531;28;20225;-65
2021/07/19 07:23:42;;;;;;;3.10;2.90;;;;;;;22.68;64.91;97004.66;5094082;28;20176;-64
2021/07/19 07:26:07;;;;;;;3.47;3.17;;;;;;;23.32;62.73;97014.25;5094718;28;20183;-64
2021/07/19 07:28:33;;;;;;;5.43;3.05;;;;;;;23.28;63.15;97010.59;5108355;28;20200;-66
2021/07/19 07:30:59;;;;;;;6.93;2.85;;;;;;;23.51;61.70;97014.13;5108067;28;20645;-67
2021/07/19 07:33:24;;;;;;;4.05;2.80;;;;;;;23.71;61.12;97008.25;5107209;28;20271;-71
2021/07/19 07:35:51;;;;;;;3.40;3.15;;;;;;;23.88;60.82;97007.56;5092331;28;20274;-64
2021/07/19 07:38:17;;;;;;;6.15;3.50;;;;;;;23.16;62.66;97013.00;5106134;28;20195;-65
2021/07/19 07:40:43;;;;;;;6.60;3.22;;;;;;;23.03;63.80;97008.47;5094574;28;20228;-64
2021/07/19 07:43:08;;;;;;;3.90;3.40;;;;;;;23.36;63.14;97009.84;5100841;28;20260;-65
2021/07/19 07:45:35;;;;;;;4.60;3.53;;;;;;;23.93;60.56;97007.44;5099626;28;20215;-65
2021/07/19 07:48:00;;;;;;;3.33;3.03;;;;;;;23.25;62.59;97002.38;5091309;28;20217;-63
2021/07/19 07:50:26;;;;;;;3.05;2.85;;;;;;;23.88;61.72;97003.00;5090940;28;20199;-68
2021/07/19 07:52:51;;;;;;;3.55;3.20;;;;;;;24.08;60.19;97003.56;5107063;28;20270;-64
2021/07/19 07:55:17;;;;;;;7.63;3.80;;;;;;;23.74;61.57;97010.31;5093574;28;20548;-65
2021/07/19 07:57:42;;;;;;;4.07;3.55;;;;;;;24.10;60.93;97007.53;5097551;28;20188;-64
2021/07/19 08:00:14;;;;;;;3.17;2.88;;;;;;;23.86;60.41;97005.19;5102479;28;20210;-64
2021/07/19 08:02:39;;;;;;;3.53;3.10;;;;;;;23.83;61.24;97008.50;5092662;28;20184;-66
2021/07/19 08:05:05;;;;;;;4.20;3.58;;;;;;;23.67;61.63;97012.66;5090229;28;20234;-65
2021/07/19 08:07:31;;;;;;;4.07;3.50;;;;;;;23.14;63.40;97005.28;5104311;28;20216;-66
2021/07/19 08:09:56;;;;;;;5.15;3.70;;;;;;;23.49;62.87;97005.59;5098438;28;20304;-66
2021/07/19 08:12:22;;;;;;;3.40;3.10;;;;;;;23.41;63.09;97000.91;5099534;28;20191;-65
2021/07/19 08:14:47;;;;;;;3.72;3.30;;;;;;;23.74;63.46;97004.19;5096948;28;20379;-65
2021/07/19 08:17:13;;;;;;;3.67;3.17;;;;;;;23.67;62.09;97012.66;5107508;28;20194;-66
2021/07/19 08:19:38;;;;;;;4.72;3.40;;;;;;;23.52;63.38;97008.44;5102330;28;20611;-66
2021/07/19 08:22:03;;;;;;;3.88;3.45;;;;;;;23.76;62.73;97000.09;5100362;28;20188;-65
2021/07/19 08:24:31;;;;;;;4.22;3.17;;;;;;;23.68;62.26;97002.75;5093274;28;20280;-70
2021/07/19 08:26:56;;;;;;;5.90;3.40;;;;;;;23.93;62.38;96997.53;5101441;28;20192;-66
2021/07/19 08:29:22;;;;;;;3.40;3.10;;;;;;;24.05;61.82;97002.31;5101721;28;20205;-66
2021/07/19 08:31:47;;;;;;;3.42;3.03;;;;;;;23.70;61.68;97000.53;5097286;28;20926;-66
2021/07/19 08:34:13;;;;;;;4.97;3.53;;;;;;;23.63;63.23;97002.88;5092810;28;20240;-66
2021/07/19 08:36:38;;;;;;;3.75;3.30;;;;;;;23.61;62.49;97005.84;5099986;28;20663;-66
2021/07/19 08:39:05;;;;;;;4.78;3.22;;;;;;;23.46;63.24;96993.59;5092214;28;20188;-64
2021/07/19 08:41:31;;;;;;;4.00;3.30;;;;;;;23.14;65.03;96994.56;5106265;28;20199;-69
2021/07/19 08:44:05;;;;;;;3.40;3.10;;;;;;;23.72;62.82;96993.00;5108169;28;20215;-65
2021/07/19 08:46:30;;;;;;;4.00;2.95;;;;;;;23.35;63.77;96994.88;5100519;28;20177;-71
2021/07/19 08:48:56;;;;;;;3.60;3.30;;;;;;;23.91;62.28;96991.69;5102929;28;20191;-65
2021/07/19 08:51:21;;;;;;;4.20;3.42;;;;;;;24.23;61.23;96982.59;5098481;28;20570;-65
2021/07/19 08:53:47;;;;;;;4.05;3.22;;;;;;;24.74;59.44;96989.97;5085726;28;20259;-65
2021/07/19 08:56:14;;;;;;;3.90;3.28;;;;;;;24.39;59.82;96993.69;5090141;28;20188;-65
2021/07/19 08:58:42;;;;;;;3.55;3.22;;;;;;;23.72;61.55;96985.75;5104867;28;20176;-65
2021/07/19 09:01:08;;;;;;;7.90;3.30;;;;;;;24.00;60.73;96987.19;5107685;28;20200;-65
2021/07/19 09:03:33;;;;;;;4.60;3.33;;;;;;;24.15;61.20;96994.00;5111472;28;20589;-65
2021/07/19 09:05:59;;;;;;;3.95;3.40;;;;;;;23.73;62.60;96984.66;5106412;28;20191;-66
2021/07/19 09:08:24;;;;;;;3.50;3.20;;;;;;;23.52;62.86;96991.59;5103902;28;20219;-65
2021/07/19 09:10:50;;;;;;;4.10;3.30;;;;;;;23.30;63.15;96991.53;5102835;28;20426;-65
2021/07/19 09:13:17;;;;;;;3.70;3.35;;;;;;;23.48;62.20;96994.09;5097549;28;20183;-64
2021/07/19 09:15:43;;;;;;;5.07;3.20;;;;;;;23.55;62.09;96985.63;5093053;28;20215;-65
2021/07/19 09:18:09;;;;;;;4.53;3.53;;;;;;;23.66;60.51;96992.31;5107498;28;20188;-65
2021/07/19 09:20:40;;;;;;;3.63;3.13;;;;;;;23.92;61.50;96989.78;5096099;28;20207;-66
2021/07/19 09:23:08;;;;;;;3.80;3.20;;;;;;;24.24;60.88;96986.81;5103149;28;20195;-65
2021/07/19 09:25:34;;;;;;;4.13;3.33;;;;;;;24.34;58.65;96983.09;5092646;28;20257;-66
2021/07/19 09:28:09;;;;;;;3.53;3.17;;;;;;;24.35;59.60;96974.72;5106131;28;20188;-65
2021/07/19 09:30:40;;;;;;;3.45;3.15;;;;;;;24.86;58.26;96973.28;5098081;28;20180;-66
2021/07/19 09:33:14;;;;;;;3.67;3.25;;;;;;;24.89;58.71;96977.25;5107023;28;20173;-65
2021/07/19 09:35:42;;;;;;;3.55;3.13;;;;;;;24.40;59.71;96979.19;5098729;28;20220;-64
2021/07/19 09:38:17;;;;;;;4.07;3.00;;;;;;;24.67;59.02;96984.31;5102018;28;20275;-65
2021/07/19 09:40:45;;;;;;;3.08;2.88;;;;;;;24.44;58.83;96977.44;5095600;28;20285;-65
2021/07/19 09:43:24;;;;;;;3.83;3.03;;;;;;;24.20;59.07;96977.03;5096484;28;20193;-65
2021/07/19 09:46:29;;;;;;;3.05;2.85;;;;;;;24.28;59.50;96982.44;5106221;28;20313;-66
2021/07/19 09:48:58;;;;;;;3.75;3.22;;;;;;;24.53;58.83;96974.78;5072245;28;20223;-66
2021/07/19 09:51:32;;;;;;;3.30;2.97;;;;;;;24.48;57.41;96973.03;5096793;28;20278;-65
2021/07/19 09:54:08;;;;;;;2.92;2.72;;;;;;;24.94;56.64;96969.06;5097894;28;20176;-66
2021/07/19 09:56:33;;;;;;;3.20;3.00;;;;;;;25.10;56.02;96972.88;5113723;28;20608;-66
2021/07/19 09:59:10;;;;;;;3.83;3.50;;;;;;;24.56;58.02;96972.28;5093137;28;20181;-65
2021/07/19 10:01:41;;;;;;;3.08;2.85;;;;;;;24.45;58.13;96968.31;5110129;28;20215;-66
2021/07/19 10:04:11;;;;;;;4.78;3.10;;;;;;;24.92;56.44;96968.59;5068520;28;20177;-66
2021/07/19 10:06:39;;;;;;;3.33;2.70;;;;;;;25.14;55.17;96977.28;5101252;28;20275;-66
2021/07/19 10:09:09;;;;;;;2.80;2.60;;;;;;;24.88;56.78;96970.28;5114045;28;20214;-65
2021/07/19 10:11:38;;;;;;;5.55;3.30;;;;;;;24.76;55.92;96968.22;5104678;28;20241;-65
2021/07/19 10:14:04;;;;;;;3.53;3.17;;;;;;;24.84;57.08;96965.56;5107992;28;20176;-67
2021/07/19 10:16:32;;;;;;;3.00;2.80;;;;;;;24.81;57.34;96966.19;5108715;28;20207;-71
2021/07/19 10:18:59;;;;;;;3.75;3.00;;;;;;;25.07;56.19;96960.88;5090659;28;20333;-69
2021/07/19 10:21:29;;;;;;;3.90;3.47;;;;;;;25.13;56.94;96956.16;5102332;28;20201;-67
2021/07/19 10:24:01;;;;;;;3.30;3.00;;;;;;;25.19;56.63;96961.03;5096361;28;20181;-67
2021/07/19 10:26:28;;;;;;;3.88;3.08;;;;;;;25.27;56.33;96956.75;5103671;28;20172;-67
2021/07/19 10:28:53;;;;;;;3.90;3.00;;;;;;;25.06;54.56;96953.16;5106135;28;20412;-67
2021/07/19 10:31:20;;;;;;;3.10;2.80;;;;;;;25.17;54.61;96951.72;5095616;28;20245;-67
2021/07/19 10:33:48;;;;;;;4.00;3.03;;;;;;;25.09;54.00;96949.81;5090693;28;20195;-66
2021/07/19 10:36:25;;;;;;;3.95;2.70;;;;;;;25.15;53.73;96952.03;5091732;28;20207;-67
2021/07/19 10:38:54;;;;;;;3.72;3.40;;;;;;;25.47;55.26;96947.25;5107409;28;20195;-67
2021/07/19 10:41:24;;;;;;;4.53;2.70;;;;;;;25.49;54.01;96953.91;5091635;28;20232;-67
2021/07/19 10:44:00;;;;;;;2.97;2.70;;;;;;;25.76;52.53;96944.72;5100646;28;20191;-67
2021/07/19 10:46:27;;;;;;;4.65;3.35;;;;;;;25.89;51.93;96937.56;5093138;28;20191;-67
2021/07/19 10:49:05;;;;;;;3.25;2.83;;;;;;;25.42;53.92;96942.84;5109124;28;20179;-67
2021/07/19 10:51:41;;;;;;;3.20;3.00;;;;;;;25.63;54.58;96934.97;5094535;28;20248;-72
2021/07/19 10:54:23;;;;;;;5.00;2.80;;;;;;;26.25;53.33;96932.53;5103510;28;20176;-67
2021/07/19 10:56:51;;;;;;;3.47;3.17;;;;;;;26.52;51.48;96914.38;5085828;28;20179;-67
2021/07/19 10:59:27;;;;;;;3.67;3.38;;;;;;;26.33;51.80;96931.72;5102202;28;20196;-67
2021/07/19 11:01:55;;;;;;;3.05;2.83;;;;;;;26.33;50.79;96929.03;5105748;28;20191;-67
2021/07/19 11:04:25;;;;;;;3.08;2.80;;;;;;;26.53;51.83;96930.19;5107483;28;20184;-67
2021/07/19 11:06:58;;;;;;;4.20;2.65;;;;;;;26.32;49.96;96924.78;5108561;28;20988;-67
2021/07/19 11:09:37;;;;;;;3.65;2.63;;;;;;;26.12;50.62;96928.16;5093570;28;20195;-67
2021/07/19 11:12:07;;;;;;;2.55;2.35;;;;;;;26.20;51.64;96919.25;5094071;28;20185;-67
2021/07/19 11:14:42;;;;;;;4.07;2.85;;;;;;;25.85;51.98;96926.69;5093676;28;20192;-72
2021/07/19 11:17:09;;;;;;;3.22;2.92;;;;;;;25.42;51.89;96921.38;5105593;28;20648;-67
2021/07/19 11:19:41;;;;;;;2.85;2.65;;;;;;;25.84;51.48;96913.56;5103830;28;20196;-72
2021/07/19 11:22:23;;;;;;;2.95;2.45;;;;;;;26.38;50.25;96912.72;5097529;28;20175;-67
2021/07/19 11:24:55;;;;;;;3.85;2.72;;;;;;;25.92;51.04;96910.06;5106862;28;20180;-67
2021/07/19 11:27:36;;;;;;;2.78;2.58;;;;;;;25.34;51.77;96906.09;5104659;28;20172;-66
2021/07/19 11:30:09;;;;;;;4.10;2.65;;;;;;;25.19;51.71;96912.72;5094825;28;20713;-65
2021/07/19 11:32:36;;;;;;;3.08;2.28;;;;;;;25.22;51.46;96909.41;5105951;28;20188;-69
2021/07/19 11:35:21;;;;;;;3.42;2.75;;;;;;;25.65;51.76;96908.56;5099180;28;20202;-65
2021/07/19 11:37:52;;;;;;;2.60;2.40;;;;;;;25.56;50.06;96907.81;5098954;28;20196;-65